createdAt,value
2023-04-20T00:04:54.810Z,7.00
2023-04-20T00:09:55.931Z,7.02
2023-04-20T00:14:56.969Z,7.00
2023-04-20T00:19:58.198Z,6.98
2023-04-20T00:24:59.188Z,7.01
2023-04-20T00:30:00.211Z,7.00
2023-04-20T00:35:01.258Z,6.99
2023-04-20T00:40:03.375Z,6.99
2023-04-20T00:45:05.486Z,6.91
2023-04-20T00:50:07.366Z,6.85
2023-04-20T00:55:09.002Z,6.85
2023-04-20T01:00:10.698Z,6.95
2023-04-20T01:05:11.961Z,6.98
2023-04-20T01:10:13.015Z,6.95
2023-04-20T01:15:14.058Z,6.99
2023-04-20T01:20:15.484Z,7.02
2023-04-20T01:25:17.628Z,7.04
2023-04-20T01:30:18.733Z,7.05
2023-04-20T01:35:19.848Z,7.00
2023-04-20T01:40:21.006Z,6.97
2023-04-20T01:45:22.009Z,6.99
2023-04-20T01:50:22.969Z,7.01
2023-04-20T01:55:26.088Z,7.03
2023-04-20T02:00:27.197Z,7.07
2023-04-20T02:05:28.170Z,7.04
2023-04-20T02:10:30.551Z,7.01
2023-04-20T02:15:31.664Z,6.98
2023-04-20T02:20:32.780Z,6.97
2023-04-20T02:25:33.879Z,7.03
2023-04-20T02:30:35.173Z,7.06
2023-04-20T02:35:36.224Z,7.05
2023-04-20T02:40:37.258Z,7.02
2023-04-20T02:45:38.614Z,7.05
2023-04-20T02:50:41.781Z,7.08
2023-04-20T02:56:05.718Z,7.17
2023-04-20T03:01:15.910Z,7.21
2023-04-20T03:06:17.244Z,7.19
2023-04-20T03:11:23.005Z,7.22
2023-04-20T03:16:24.857Z,7.24
2023-04-20T03:21:28.729Z,7.28
2023-04-20T03:26:30.255Z,7.35
2023-04-20T03:31:43.153Z,7.35
2023-04-20T03:36:45.053Z,7.36
2023-04-20T03:41:46.166Z,7.32
2023-04-20T03:46:47.172Z,7.27
2023-04-20T03:51:48.167Z,7.28
2023-04-20T03:56:49.788Z,7.31
2023-04-20T04:01:51.981Z,7.38
2023-04-20T04:06:53.815Z,7.46
2023-04-20T04:11:55.069Z,7.50
2023-04-20T04:16:56.549Z,7.55
2023-04-20T04:21:57.875Z,7.63
2023-04-20T04:26:58.977Z,7.78
2023-04-20T04:32:03.480Z,7.90
2023-04-20T04:37:04.638Z,8.07
2023-04-20T04:42:15.363Z,8.27
2023-04-20T04:47:19.312Z,8.52
2023-04-20T04:52:21.034Z,8.81
2023-04-20T04:57:22.042Z,8.98
2023-04-20T05:02:23.155Z,9.20
2023-04-20T05:07:24.266Z,9.38
2023-04-20T05:12:25.394Z,9.44
2023-04-20T05:17:26.391Z,9.60
2023-04-20T05:22:27.355Z,9.62
2023-04-20T05:27:28.331Z,9.54
2023-04-20T05:32:29.440Z,9.52
2023-04-20T05:37:31.513Z,9.50
2023-04-20T05:42:32.553Z,9.73
2023-04-20T05:47:33.638Z,9.87
2023-04-20T05:52:34.725Z,9.78
2023-04-20T05:57:41.870Z,9.80
2023-04-20T06:02:43.570Z,9.94
2023-04-20T06:07:44.926Z,10.20
2023-04-20T06:12:46.892Z,10.56
2023-04-20T06:17:48.141Z,10.83
2023-04-20T06:22:49.471Z,10.99
2023-04-20T06:27:52.451Z,11.09
2023-04-20T06:32:53.921Z,11.28
2023-04-20T06:37:58.540Z,11.31
2023-04-20T06:43:01.301Z,11.22
2023-04-20T06:48:03.001Z,11.23
2023-04-20T06:53:04.678Z,11.61
2023-04-20T06:58:05.655Z,11.71
2023-04-20T07:03:07.128Z,11.80
2023-04-20T07:08:08.775Z,11.91
2023-04-20T07:13:09.862Z,12.14
2023-04-20T07:18:11.003Z,12.46
2023-04-20T07:23:12.080Z,12.66
2023-04-20T07:28:13.378Z,12.67
2023-04-20T07:33:14.697Z,12.71
2023-04-20T07:38:15.756Z,12.67
2023-04-20T07:43:16.768Z,12.64
2023-04-20T07:48:17.735Z,12.90
2023-04-20T07:53:34.786Z,13.24
2023-04-20T07:58:37.843Z,13.62
2023-04-20T08:03:39.172Z,13.51
2023-04-20T08:08:40.534Z,13.57
2023-04-20T08:13:41.493Z,13.73
2023-04-20T08:18:42.578Z,13.96
2023-04-20T08:23:43.925Z,13.78
2023-04-20T08:28:44.971Z,13.82
2023-04-20T08:33:46.547Z,14.15
2023-04-20T08:39:12.774Z,14.17
2023-04-20T08:44:13.908Z,14.26
2023-04-20T08:49:16.900Z,14.54
2023-04-20T08:54:18.126Z,14.67
2023-04-20T08:59:19.224Z,14.56
2023-04-20T09:04:23.837Z,14.66
2023-04-20T09:09:26.383Z,14.52
2023-04-20T09:14:27.764Z,14.56
2023-04-20T09:19:29.803Z,14.95
2023-04-20T09:24:33.102Z,15.41
2023-04-20T09:29:34.035Z,15.62
2023-04-20T09:34:44.498Z,15.75
2023-04-20T09:39:46.055Z,15.62
2023-04-20T09:44:48.115Z,15.53
2023-04-20T09:49:49.577Z,15.67
2023-04-20T09:54:50.910Z,15.82
2023-04-20T09:59:53.833Z,15.97
2023-04-20T10:04:56.484Z,16.40
2023-04-20T10:10:04.955Z,16.56
2023-04-20T10:15:06.631Z,16.70
2023-04-20T10:20:25.294Z,16.71
2023-04-20T10:25:27.279Z,16.70
2023-04-20T10:30:28.706Z,16.40
2023-04-20T10:35:50.464Z,16.13
2023-04-20T10:40:51.417Z,16.08
2023-04-20T10:45:52.778Z,16.33
2023-04-20T10:50:53.903Z,16.44
2023-04-20T10:56:01.205Z,16.53
2023-04-20T11:01:05.469Z,16.46
2023-04-20T11:06:06.862Z,16.76
2023-04-20T11:11:24.220Z,16.71
2023-04-20T11:16:36.361Z,16.72
2023-04-20T11:21:45.996Z,16.56
2023-04-20T11:26:53.602Z,16.49
2023-04-20T11:31:55.309Z,16.56
2023-04-20T11:36:56.790Z,16.74
2023-04-20T11:41:57.884Z,16.60
2023-04-20T11:46:59.084Z,16.44
2023-04-20T11:52:00.543Z,16.15
2023-04-20T11:57:01.927Z,16.00
2023-04-20T12:02:03.279Z,15.95
2023-04-20T12:07:04.280Z,16.04
2023-04-20T12:12:05.703Z,16.14
2023-04-20T12:17:06.815Z,16.33
2023-04-20T12:22:07.860Z,16.69
2023-04-20T12:27:08.835Z,16.86
2023-04-20T12:32:10.306Z,17.01
2023-04-20T12:37:11.510Z,17.04
2023-04-20T12:42:12.513Z,17.11
2023-04-20T12:47:13.695Z,17.22
2023-04-20T12:52:14.947Z,17.39
2023-04-20T12:57:16.335Z,17.28
2023-04-20T13:02:17.931Z,16.87
2023-04-20T13:07:19.052Z,16.60
2023-04-20T13:12:20.226Z,16.33
2023-04-20T13:17:21.373Z,16.16
2023-04-20T13:22:22.359Z,16.26
2023-04-20T13:27:23.581Z,16.47
2023-04-20T13:32:25.690Z,16.55
2023-04-20T13:37:26.830Z,16.94
2023-04-20T13:42:28.216Z,17.19
2023-04-20T13:47:29.887Z,16.73
2023-04-20T13:52:31.061Z,16.33
2023-04-20T13:57:32.316Z,16.23
2023-04-20T14:02:33.651Z,16.31
2023-04-20T14:07:35.166Z,16.43
2023-04-20T14:12:36.332Z,16.63
2023-04-20T14:17:37.373Z,17.13
2023-04-20T14:22:38.495Z,17.59
2023-04-20T14:27:39.781Z,18.05
2023-04-20T14:32:40.992Z,18.32
2023-04-20T14:37:42.120Z,18.38
2023-04-20T14:42:43.083Z,18.28
2023-04-20T14:47:44.190Z,17.99
2023-04-20T14:52:45.447Z,17.44
2023-04-20T14:57:46.576Z,17.22
2023-04-20T15:02:47.756Z,17.29
2023-04-20T15:07:50.182Z,17.51
2023-04-20T15:12:51.358Z,17.53
2023-04-20T15:17:53.206Z,17.55
2023-04-20T15:22:54.319Z,17.67
2023-04-20T15:27:55.402Z,17.58
2023-04-20T15:32:56.527Z,17.63
2023-04-20T15:38:06.195Z,17.63
2023-04-20T15:43:07.233Z,17.62
2023-04-20T15:48:08.546Z,17.57
2023-04-20T15:53:09.698Z,17.68
2023-04-20T15:58:11.346Z,17.55
2023-04-20T16:03:12.605Z,17.20
2023-04-20T16:08:13.774Z,16.98
2023-04-20T16:13:14.857Z,16.97
2023-04-20T16:18:15.862Z,16.82
2023-04-20T16:23:16.836Z,16.70
2023-04-20T16:28:17.834Z,16.61
2023-04-20T16:33:18.820Z,16.58
2023-04-20T16:38:20.034Z,16.56
2023-04-20T16:43:21.058Z,16.49
2023-04-20T16:48:22.698Z,16.29
2023-04-20T16:53:23.861Z,16.12
2023-04-20T16:58:25.021Z,15.97
2023-04-20T17:03:26.355Z,15.75
2023-04-20T17:08:27.618Z,15.51
2023-04-20T17:13:29.536Z,15.27
2023-04-20T17:18:33.566Z,15.00
2023-04-20T17:23:35.128Z,14.77
2023-04-20T17:28:36.436Z,14.51
2023-04-20T17:33:38.197Z,14.24
2023-04-20T17:38:39.243Z,13.95
2023-04-20T17:43:40.708Z,13.66
2023-04-20T17:48:41.652Z,13.37
2023-04-20T17:53:42.681Z,13.10
2023-04-20T17:58:43.802Z,12.84
2023-04-20T18:03:45.055Z,12.60
2023-04-20T18:08:46.327Z,12.37
2023-04-20T18:13:47.517Z,12.14
2023-04-20T18:18:51.032Z,11.91
2023-04-20T18:23:52.402Z,11.70
2023-04-20T18:28:53.551Z,11.51
2023-04-20T18:33:54.917Z,11.33
2023-04-20T18:38:56.756Z,11.18
2023-04-20T18:43:57.871Z,11.05
2023-04-20T18:48:58.926Z,10.99
2023-04-20T18:53:59.914Z,10.97
2023-04-20T18:59:01.124Z,10.86
2023-04-20T19:04:02.543Z,10.71
2023-04-20T19:09:04.491Z,10.50
2023-04-20T19:14:06.917Z,10.31
2023-04-20T19:19:09.068Z,10.14
2023-04-20T19:24:10.254Z,10.02
2023-04-20T19:29:11.960Z,9.95
2023-04-20T19:34:13.942Z,9.91
2023-04-20T19:39:15.111Z,9.82
2023-04-20T19:44:19.080Z,9.67
2023-04-20T19:49:20.525Z,9.48
2023-04-20T19:54:22.391Z,9.24
2023-04-20T19:59:23.385Z,9.02
2023-04-20T20:04:24.527Z,8.86
2023-04-20T20:09:25.885Z,8.75
2023-04-20T20:14:27.259Z,8.68
2023-04-20T20:19:29.371Z,8.63
2023-04-20T20:24:30.356Z,8.55
2023-04-20T20:29:31.469Z,8.44
2023-04-20T20:34:32.494Z,8.32
2023-04-20T20:39:33.448Z,8.27
2023-04-20T20:44:38.207Z,8.26
2023-04-20T20:49:39.146Z,8.21
2023-04-20T20:54:41.749Z,8.13
2023-04-20T20:59:42.758Z,8.00
2023-04-20T21:04:43.716Z,7.82
2023-04-20T21:09:45.790Z,7.65
2023-04-20T21:14:53.196Z,7.54
2023-04-20T21:19:54.255Z,7.54
2023-04-20T21:24:55.244Z,7.63
2023-04-20T21:29:56.398Z,7.73
2023-04-20T21:35:01.077Z,7.79
2023-04-20T21:40:03.121Z,7.82
2023-04-20T21:45:07.923Z,7.86
2023-04-20T21:50:15.681Z,7.90
2023-04-20T21:55:18.276Z,7.92
2023-04-20T22:00:19.556Z,7.86
2023-04-20T22:05:21.210Z,7.74
2023-04-20T22:10:22.732Z,7.57
2023-04-20T22:15:25.417Z,7.38
2023-04-20T22:20:26.516Z,7.22
2023-04-20T22:25:27.610Z,7.10
2023-04-20T22:30:28.767Z,7.02
2023-04-20T22:35:30.236Z,6.78
2023-04-20T22:40:31.709Z,6.83
2023-04-20T22:45:32.701Z,6.66
2023-04-20T22:50:34.523Z,6.54
2023-04-20T22:55:35.609Z,6.50
2023-04-20T23:00:36.722Z,6.45
2023-04-20T23:05:38.422Z,6.40
2023-04-20T23:10:47.304Z,6.33
2023-04-20T23:15:53.349Z,6.23
2023-04-20T23:20:56.265Z,6.17
2023-04-20T23:25:57.236Z,6.14
2023-04-20T23:30:58.950Z,6.14
2023-04-20T23:36:00.378Z,6.17
2023-04-20T23:41:10.144Z,6.10
2023-04-20T23:46:13.767Z,5.96
2023-04-20T23:51:17.628Z,5.84
2023-04-20T23:56:19.300Z,5.78
